Terminal Aerodrome Forecast
Issued by NWS

Home | Current Version | Previous Version | Text Only | Print | Product List | Glossary On
Versions: 1 2 3 4 5 6 7 8 9 10 11 12 13 14 15 16 17 18 19 20 21 22
000
FTUS41 KGYX 040902 AAC
TAFLEB
TAF AMD
KLEB 040902Z 0409/0506 VRB03KT P6SM OVC200
      TEMPO 0409/0411 6SM BR BKN001
     FM041400 19005KT P6SM BKN080 OVC150=

USA.gov is the U.S. government's official web portal to all federal, state and local government web resources and services.